Time;durP1;ratioP1;P1;durP2;ratioP2;P2;SDS_P1;SDS_P2;PMS_P1;PMS_P2;Temp;Humidity;BMP_temperature;BMP_pressure;BME280_temperature;BME280_humidity;BME280_pressure;Samples;Min_cycle;Max_cycle;Signal;HPM_P1;HPM_P2
2021/07/18 00:00:29;;;;;;;11.23;9.75;;;22.20;92.80;;;;;;4982274;28;20031;-60
2021/07/18 00:02:55;;;;;;;12.52;9.52;;;22.10;92.80;;;;;;4984493;28;20042;-61
2021/07/18 00:05:20;;;;;;;13.18;9.48;;;22.10;92.80;;;;;;4982953;28;20121;-60
2021/07/18 00:07:46;;;;;;;11.45;9.60;;;22.10;92.80;;;;;;4983480;28;20053;-60
2021/07/18 00:10:12;;;;;;;10.93;9.82;;;22.30;92.90;;;;;;4981025;28;20129;-59
2021/07/18 00:12:37;;;;;;;14.20;9.35;;;22.10;92.90;;;;;;4983801;28;20129;-60
2021/07/18 00:15:08;;;;;;;11.35;10.13;;;22.10;92.90;;;;;;4966085;28;20121;-60
2021/07/18 00:17:37;;;;;;;13.77;10.27;;;22.00;92.90;;;;;;4983569;28;20037;-60
2021/07/18 00:20:08;;;;;;;11.05;9.57;;;22.00;93.00;;;;;;4984284;28;20113;-60
2021/07/18 00:22:33;;;;;;;11.50;10.25;;;22.00;93.00;;;;;;4981986;28;20026;-60
2021/07/18 00:24:59;;;;;;;10.95;9.85;;;22.00;93.00;;;;;;4981673;28;20072;-61
2021/07/18 00:27:24;;;;;;;12.00;10.15;;;22.00;93.00;;;;;;4982370;28;20037;-60
2021/07/18 00:29:50;;;;;;;17.10;10.23;;;22.00;93.00;;;;;;4981838;28;20245;-59
2021/07/18 00:32:16;;;;;;;14.90;10.50;;;22.00;93.10;;;;;;4984240;28;20097;-60
2021/07/18 00:34:41;;;;;;;11.25;10.18;;;22.00;93.10;;;;;;4983982;28;20487;-59
2021/07/18 00:37:07;;;;;;;11.30;10.20;;;22.00;93.10;;;;;;4981783;28;20077;-60
2021/07/18 00:39:33;;;;;;;11.30;10.18;;;22.00;93.10;;;;;;4981894;28;20064;-60
2021/07/18 00:41:59;;;;;;;12.00;10.30;;;21.90;93.10;;;;;;4982626;28;20425;-60
2021/07/18 00:44:25;;;;;;;14.27;10.35;;;21.90;93.10;;;;;;4982756;28;20030;-60
2021/07/18 00:46:50;;;;;;;12.18;10.77;;;21.90;93.20;;;;;;4982418;28;20137;-61
2021/07/18 00:49:16;;;;;;;12.15;10.80;;;21.90;93.20;;;;;;4983495;28;20042;-59
2021/07/18 00:51:41;;;;;;;11.32;10.15;;;21.90;93.30;;;;;;4983367;28;20197;-59
2021/07/18 00:54:07;;;;;;;13.45;11.10;;;21.80;93.30;;;;;;4983807;28;20373;-60
2021/07/18 00:56:32;;;;;;;11.90;10.70;;;21.80;93.30;;;;;;4981470;28;20082;-61
2021/07/18 00:58:58;;;;;;;13.48;10.65;;;21.80;93.40;;;;;;4979697;28;20093;-60
2021/07/18 01:01:24;;;;;;;12.40;11.10;;;21.80;93.40;;;;;;4981267;28;20390;-60
2021/07/18 01:03:50;;;;;;;12.63;11.27;;;21.80;93.40;;;;;;4982870;28;20394;-60
2021/07/18 01:06:15;;;;;;;14.18;11.55;;;21.80;93.50;;;;;;4980804;28;20424;-60
2021/07/18 01:08:41;;;;;;;12.63;10.95;;;21.80;93.50;;;;;;4983097;28;20026;-60
2021/07/18 01:11:06;;;;;;;13.20;11.63;;;21.70;93.60;;;;;;4981615;28;20395;-60
2021/07/18 01:13:32;;;;;;;14.32;12.07;;;21.70;93.60;;;;;;4980431;28;20068;-60
2021/07/18 01:15:57;;;;;;;13.75;11.20;;;21.70;93.60;;;;;;4982033;28;20546;-60
2021/07/18 01:18:23;;;;;;;13.05;11.75;;;21.70;93.70;;;;;;4982849;28;20984;-60
2021/07/18 01:20:48;;;;;;;12.07;10.80;;;21.70;93.70;;;;;;4982091;28;20044;-60
2021/07/18 01:23:14;;;;;;;14.45;11.40;;;21.70;93.70;;;;;;4981858;28;20035;-60
2021/07/18 01:25:40;;;;;;;14.15;11.98;;;21.70;93.70;;;;;;4980700;28;20105;-60
2021/07/18 01:28:09;;;;;;;14.15;11.13;;;21.70;93.70;;;;;;4980733;28;20041;-60
2021/07/18 01:30:35;;;;;;;13.65;11.35;;;21.70;93.70;;;;;;4981152;28;20171;-60
2021/07/18 01:33:01;;;;;;;13.73;12.32;;;21.60;93.70;;;;;;4983686;28;20508;-60
2021/07/18 01:35:27;;;;;;;13.10;11.05;;;21.60;93.80;;;;;;4982883;28;20510;-60
2021/07/18 01:37:52;;;;;;;12.45;11.15;;;21.60;93.80;;;;;;4963398;28;20058;-60
2021/07/18 01:40:18;;;;;;;12.65;11.35;;;21.60;93.80;;;;;;4982767;28;20035;-59
2021/07/18 01:42:43;;;;;;;12.68;11.52;;;21.60;94.10;;;;;;4982229;28;20092;-60
2021/07/18 01:45:09;;;;;;;14.00;12.55;;;21.60;93.80;;;;;;4982574;28;20441;-59
2021/07/18 01:47:35;;;;;;;13.63;11.93;;;21.60;93.80;;;;;;4982083;28;20061;-60
2021/07/18 01:50:00;;;;;;;13.38;12.05;;;21.50;93.90;;;;;;4980524;28;20054;-60
2021/07/18 01:52:26;;;;;;;12.60;11.43;;;21.60;93.90;;;;;;4980851;28;20039;-61
2021/07/18 01:54:54;;;;;;;13.38;12.00;;;21.50;93.90;;;;;;4981049;28;20364;-61
2021/07/18 01:57:20;;;;;;;13.43;11.65;;;21.50;94.00;;;;;;4981255;28;20018;-61
2021/07/18 01:59:45;;;;;;;12.85;11.55;;;21.50;93.90;;;;;;4980862;28;20089;-60
2021/07/18 02:02:13;;;;;;;13.02;11.93;;;21.50;94.00;;;;;;4983243;28;20173;-60
2021/07/18 02:04:39;;;;;;;13.95;12.60;;;21.50;94.10;;;;;;4982198;28;20045;-60
2021/07/18 02:07:04;;;;;;;14.63;12.52;;;21.50;94.10;;;;;;4981046;28;20038;-60
2021/07/18 02:09:30;;;;;;;13.45;12.05;;;21.50;94.00;;;;;;4982660;28;20019;-60
2021/07/18 02:11:56;;;;;;;13.68;12.07;;;21.50;94.00;;;;;;4979770;28;20017;-60
2021/07/18 02:14:22;;;;;;;12.73;11.40;;;21.50;94.00;;;;;;4980519;28;20042;-60
2021/07/18 02:16:49;;;;;;;13.32;12.02;;;21.50;93.90;;;;;;4982227;28;20529;-60
2021/07/18 02:19:15;;;;;;;12.55;11.25;;;21.50;93.90;;;;;;4983003;28;20098;-61
2021/07/18 02:21:40;;;;;;;12.93;11.63;;;21.50;93.90;;;;;;4982188;28;20153;-59
2021/07/18 02:24:06;;;;;;;14.23;11.77;;;21.50;94.00;;;;;;4982347;28;20042;-60
2021/07/18 02:26:32;;;;;;;13.60;12.23;;;21.40;94.00;;;;;;4982072;28;20080;-60
2021/07/18 02:28:58;;;;;;;14.68;12.38;;;21.40;94.10;;;;;;4978573;28;20573;-60
2021/07/18 02:31:23;;;;;;;12.70;11.50;;;21.40;94.10;;;;;;4981343;28;20149;-60
2021/07/18 02:33:49;;;;;;;13.32;12.00;;;21.40;94.20;;;;;;4984373;28;20057;-61
2021/07/18 02:36:14;;;;;;;13.90;12.55;;;21.40;94.20;;;;;;4984057;28;20378;-60
2021/07/18 02:38:40;;;;;;;13.20;12.00;;;21.40;94.20;;;;;;4982990;28;20050;-60
2021/07/18 02:41:05;;;;;;;13.45;12.25;;;21.40;94.20;;;;;;4983194;28;20502;-60
2021/07/18 02:43:31;;;;;;;14.40;12.30;;;21.40;94.30;;;;;;4984080;28;20058;-60
2021/07/18 02:45:56;;;;;;;13.30;11.95;;;21.40;94.40;;;;;;4985684;28;20045;-60
2021/07/18 02:48:22;;;;;;;13.23;11.93;;;21.30;94.30;;;;;;4984961;28;20041;-60
2021/07/18 02:50:47;;;;;;;13.50;12.15;;;21.40;94.40;;;;;;4985482;28;20033;-60
2021/07/18 02:53:13;;;;;;;13.43;12.13;;;21.30;94.40;;;;;;4983059;28;20110;-60
2021/07/18 02:55:38;;;;;;;13.43;12.27;;;21.30;94.40;;;;;;4983399;28;20050;-60
2021/07/18 02:58:04;;;;;;;15.20;12.50;;;21.30;94.40;;;;;;4984570;28;20038;-61
2021/07/18 03:00:29;;;;;;;13.82;12.43;;;21.30;94.50;;;;;;4984660;28;20086;-60
2021/07/18 03:02:55;;;;;;;13.32;12.02;;;21.30;94.40;;;;;;4985774;28;20486;-60
2021/07/18 03:05:20;;;;;;;13.50;12.10;;;21.30;94.40;;;;;;4983210;28;20049;-61
2021/07/18 03:07:46;;;;;;;16.25;12.35;;;21.30;94.30;;;;;;4984946;28;20031;-60
2021/07/18 03:10:13;;;;;;;14.60;12.18;;;21.30;94.30;;;;;;4984593;28;20232;-60
2021/07/18 03:12:39;;;;;;;13.10;11.80;;;21.30;94.30;;;;;;4984432;28;20022;-60
2021/07/18 03:15:12;;;;;;;13.30;12.05;;;21.30;94.60;;;;;;4983088;28;20030;-59
2021/07/18 03:17:37;;;;;;;13.25;11.90;;;21.30;94.30;;;;;;4984789;28;20156;-60
2021/07/18 03:20:07;;;;;;;13.52;11.52;;;21.30;94.30;;;;;;4983390;28;20130;-60
2021/07/18 03:22:33;;;;;;;13.80;12.07;;;21.30;94.30;;;;;;4985178;28;20410;-60
2021/07/18 03:24:59;;;;;;;13.30;11.90;;;21.30;94.30;;;;;;4984598;28;20044;-60
2021/07/18 03:27:25;;;;;;;13.68;12.25;;;21.30;94.30;;;;;;4983098;28;20040;-60
2021/07/18 03:29:50;;;;;;;12.75;11.55;;;21.30;94.20;;;;;;4983858;28;20026;-60
2021/07/18 03:32:16;;;;;;;13.95;12.55;;;21.30;94.20;;;;;;4982751;28;20036;-60
2021/07/18 03:34:41;;;;;;;13.50;12.10;;;21.20;94.50;;;;;;4985275;28;20514;-60
2021/07/18 03:37:07;;;;;;;13.20;11.90;;;21.30;94.30;;;;;;4983547;28;20029;-60
2021/07/18 03:39:32;;;;;;;12.40;11.10;;;21.20;94.20;;;;;;4985086;28;20531;-60
2021/07/18 03:41:58;;;;;;;12.68;11.32;;;21.20;94.30;;;;;;4983406;28;20022;-60
2021/07/18 03:44:24;;;;;;;12.93;11.25;;;21.20;94.30;;;;;;4982704;28;20073;-60
2021/07/18 03:46:49;;;;;;;13.10;11.77;;;21.20;94.30;;;;;;4983230;28;20129;-60
2021/07/18 03:49:16;;;;;;;15.55;10.85;;;21.20;94.30;;;;;;4984056;28;20022;-60
2021/07/18 03:51:42;;;;;;;12.50;11.30;;;21.20;94.30;;;;;;4982423;28;20057;-60
2021/07/18 03:54:07;;;;;;;12.02;10.93;;;21.20;94.40;;;;;;4982715;28;20454;-60
2021/07/18 03:56:33;;;;;;;13.50;12.00;;;21.20;94.40;;;;;;4981487;28;20540;-60
2021/07/18 03:58:58;;;;;;;12.82;11.43;;;21.10;94.40;;;;;;4982227;28;20027;-60
2021/07/18 04:01:24;;;;;;;12.77;11.48;;;21.10;94.40;;;;;;4983059;28;20026;-60
2021/07/18 04:03:49;;;;;;;13.13;11.70;;;21.20;94.50;;;;;;4984950;28;20034;-59
2021/07/18 04:06:15;;;;;;;13.23;11.73;;;21.20;94.50;;;;;;4984437;28;20476;-60
2021/07/18 04:08:41;;;;;;;16.15;11.98;;;21.20;94.50;;;;;;4981322;28;20062;-60
2021/07/18 04:11:07;;;;;;;13.18;11.60;;;21.10;94.40;;;;;;4982153;28;20081;-60
2021/07/18 04:13:32;;;;;;;14.65;11.80;;;21.10;94.40;;;;;;4981659;28;20113;-60
2021/07/18 04:15:58;;;;;;;13.30;11.93;;;21.10;94.40;;;;;;4983157;28;20027;-61
2021/07/18 04:18:23;;;;;;;14.23;11.52;;;21.10;94.40;;;;;;4982887;28;20551;-61
2021/07/18 04:20:49;;;;;;;12.35;11.02;;;21.10;94.40;;;;;;4982701;28;20085;-60
2021/07/18 04:23:16;;;;;;;13.50;11.35;;;21.10;94.40;;;;;;4981921;28;20046;-60
2021/07/18 04:25:42;;;;;;;13.43;10.80;;;21.10;94.40;;;;;;4983486;28;20026;-60
2021/07/18 04:28:08;;;;;;;13.90;10.88;;;21.20;94.40;;;;;;4997173;28;20030;-61
2021/07/18 04:30:33;;;;;;;12.30;10.52;;;21.10;94.40;;;;;;4981883;28;20593;-60
2021/07/18 04:32:59;;;;;;;12.55;10.60;;;21.10;94.40;;;;;;4983667;28;20030;-60
2021/07/18 04:35:24;;;;;;;13.80;10.80;;;21.10;94.30;;;;;;4976768;28;20042;-60
2021/07/18 04:37:50;;;;;;;14.50;11.15;;;21.10;94.30;;;;;;4979824;28;20054;-60
2021/07/18 04:40:16;;;;;;;15.43;11.35;;;21.10;94.30;;;;;;4980916;28;20034;-60
2021/07/18 04:42:41;;;;;;;12.77;11.02;;;21.10;94.30;;;;;;4980490;28;20085;-60
2021/07/18 04:45:07;;;;;;;13.88;10.40;;;21.10;94.30;;;;;;4981369;28;20487;-60
2021/07/18 04:47:36;;;;;;;12.82;10.93;;;21.10;94.30;;;;;;4979746;28;20042;-59
2021/07/18 04:50:02;;;;;;;12.63;11.00;;;21.10;94.40;;;;;;4981128;28;20100;-60
2021/07/18 04:52:27;;;;;;;14.43;10.07;;;21.10;94.40;;;;;;4980147;28;20490;-60
2021/07/18 04:54:53;;;;;;;12.40;10.68;;;21.10;94.50;;;;;;4981875;28;20176;-60
2021/07/18 04:57:18;;;;;;;13.25;10.45;;;21.10;94.40;;;;;;4981665;28;20117;-60
2021/07/18 04:59:44;;;;;;;15.15;10.57;;;21.10;94.30;;;;;;4979308;28;20026;-60
2021/07/18 05:02:09;;;;;;;20.45;10.52;;;21.10;94.20;;;;;;4981782;28;20558;-61
2021/07/18 05:04:35;;;;;;;40.17;11.60;;;21.10;94.10;;;;;;4982432;28;20038;-60
2021/07/18 05:07:00;;;;;;;31.60;11.73;;;21.10;94.10;;;;;;4980089;28;20042;-60
2021/07/18 05:09:27;;;;;;;24.75;10.88;;;21.10;94.10;;;;;;4980732;28;20026;-60
2021/07/18 05:11:53;;;;;;;23.25;11.13;;;21.10;94.00;;;;;;4980323;28;20069;-60
2021/07/18 05:14:18;;;;;;;21.85;10.40;;;21.10;94.00;;;;;;4979805;28;20042;-60
2021/07/18 05:16:44;;;;;;;20.98;10.88;;;21.20;93.90;;;;;;4982068;28;20347;-60
2021/07/18 05:19:09;;;;;;;17.10;10.55;;;21.20;93.90;;;;;;4981333;28;20982;-60
2021/07/18 05:21:35;;;;;;;19.52;11.00;;;21.20;93.90;;;;;;4978278;28;20125;-61
2021/07/18 05:24:00;;;;;;;22.90;11.23;;;21.20;94.00;;;;;;4980055;28;20076;-61
2021/07/18 05:26:26;;;;;;;20.23;10.80;;;21.20;94.30;;;;;;4978878;28;20046;-59
2021/07/18 05:28:51;;;;;;;12.43;10.05;;;21.20;94.20;;;;;;4980285;28;20401;-60
2021/07/18 05:31:17;;;;;;;14.15;9.48;;;21.20;94.10;;;;;;4980308;28;20058;-60
2021/07/18 05:33:42;;;;;;;15.40;10.70;;;21.20;94.00;;;;;;4997261;28;20040;-60
2021/07/18 05:36:11;;;;;;;12.50;9.27;;;21.20;93.80;;;;;;4995218;28;20061;-60
2021/07/18 05:38:37;;;;;;;15.40;9.68;;;21.30;93.80;;;;;;4995178;28;20073;-61
2021/07/18 05:41:03;;;;;;;14.60;10.30;;;21.20;93.70;;;;;;4979430;28;20062;-60
2021/07/18 05:43:29;;;;;;;14.23;9.32;;;21.30;93.80;;;;;;4977905;28;20026;-60
2021/07/18 05:45:54;;;;;;;11.80;10.23;;;21.20;93.70;;;;;;4982078;28;20033;-60
2021/07/18 05:48:24;;;;;;;14.20;9.80;;;21.20;93.70;;;;;;4983127;28;20557;-60
2021/07/18 05:50:50;;;;;;;11.52;9.88;;;21.30;93.70;;;;;;4980184;28;20046;-60
2021/07/18 05:53:15;;;;;;;15.80;10.40;;;21.30;93.80;;;;;;4979090;28;20065;-59
2021/07/18 05:55:41;;;;;;;16.67;10.18;;;21.20;93.80;;;;;;4997137;28;20098;-60
2021/07/18 05:58:06;;;;;;;16.10;10.07;;;21.30;93.80;;;;;;4982363;28;20188;-60
2021/07/18 06:00:32;;;;;;;14.02;9.95;;;21.30;93.80;;;;;;4982143;28;20116;-60
2021/07/18 06:02:57;;;;;;;14.25;10.32;;;21.30;93.70;;;;;;4982941;28;20045;-60
2021/07/18 06:05:23;;;;;;;11.88;9.93;;;21.30;93.80;;;;;;4981547;28;20750;-60
2021/07/18 06:07:48;;;;;;;12.82;10.23;;;21.30;93.80;;;;;;4983883;28;20027;-60
2021/07/18 06:10:14;;;;;;;15.70;10.07;;;21.30;93.80;;;;;;4985550;28;20038;-61
2021/07/18 06:12:40;;;;;;;15.18;9.95;;;21.30;93.80;;;;;;4984430;28;20034;-60
2021/07/18 06:15:06;;;;;;;14.48;9.95;;;21.30;93.80;;;;;;4984719;28;20038;-60
2021/07/18 06:17:32;;;;;;;17.15;10.98;;;21.30;93.80;;;;;;5000443;28;20052;-60
2021/07/18 06:19:57;;;;;;;17.52;11.32;;;21.30;93.80;;;;;;4985808;28;20170;-60
2021/07/18 06:22:23;;;;;;;14.18;10.88;;;21.30;93.80;;;;;;4986300;28;20428;-60
2021/07/18 06:24:49;;;;;;;14.85;10.98;;;21.30;93.80;;;;;;4986054;28;20038;-60
2021/07/18 06:27:14;;;;;;;16.65;11.52;;;21.20;93.80;;;;;;4985309;28;20041;-60
2021/07/18 06:29:40;;;;;;;12.15;10.25;;;21.20;93.80;;;;;;4983138;28;20033;-60
2021/07/18 06:32:06;;;;;;;15.45;10.27;;;21.30;93.90;;;;;;4986015;28;20285;-59
2021/07/18 06:34:31;;;;;;;19.23;11.20;;;21.30;93.80;;;;;;4985017;28;20033;-60
2021/07/18 06:36:57;;;;;;;16.00;10.80;;;21.30;93.80;;;;;;4984129;28;20031;-60
2021/07/18 06:39:22;;;;;;;13.57;11.32;;;21.30;93.80;;;;;;4985930;28;20058;-61
2021/07/18 06:41:48;;;;;;;13.15;11.13;;;21.20;93.80;;;;;;4984251;28;20066;-60
2021/07/18 06:44:14;;;;;;;15.77;11.88;;;21.30;93.90;;;;;;4982591;28;20501;-60
2021/07/18 06:46:40;;;;;;;13.75;12.18;;;21.30;93.80;;;;;;4983790;28;20486;-59
2021/07/18 06:49:06;;;;;;;17.85;11.07;;;21.30;93.80;;;;;;4986006;28;20026;-58
2021/07/18 06:51:32;;;;;;;13.13;10.45;;;21.30;93.70;;;;;;4984622;28;20040;-60
2021/07/18 06:53:57;;;;;;;15.27;11.40;;;21.30;93.70;;;;;;4984652;28;20057;-60
2021/07/18 06:56:23;;;;;;;19.15;11.13;;;21.30;93.60;;;;;;4983035;28;20023;-60
2021/07/18 06:58:48;;;;;;;16.80;10.52;;;21.30;93.60;;;;;;4984652;28;20035;-61
2021/07/18 07:01:14;;;;;;;13.10;11.18;;;21.30;93.60;;;;;;4985143;28;20033;-60
2021/07/18 07:03:39;;;;;;;13.68;11.20;;;21.30;93.50;;;;;;4985694;28;20298;-60
2021/07/18 07:06:05;;;;;;;14.85;10.57;;;21.30;93.50;;;;;;4984875;28;20056;-60
2021/07/18 07:08:30;;;;;;;11.43;10.23;;;21.30;93.40;;;;;;4982277;28;20524;-61
2021/07/18 07:10:56;;;;;;;15.35;9.73;;;21.30;93.70;;;;;;4983277;28;20539;-60
2021/07/18 07:13:21;;;;;;;15.65;9.88;;;21.30;93.20;;;;;;4982293;28;20102;-59
2021/07/18 07:15:47;;;;;;;12.18;9.77;;;21.30;93.10;;;;;;4985459;28;20168;-60
2021/07/18 07:18:12;;;;;;;11.23;9.07;;;21.30;93.00;;;;;;4985069;28;20485;-61
2021/07/18 07:20:38;;;;;;;11.75;9.25;;;21.30;93.00;;;;;;4983168;28;20042;-61
2021/07/18 07:23:03;;;;;;;14.07;9.13;;;21.30;92.90;;;;;;4984227;28;20461;-60
2021/07/18 07:25:29;;;;;;;14.55;9.05;;;21.30;92.80;;;;;;4997392;28;20026;-60
2021/07/18 07:27:55;;;;;;;12.82;8.38;;;21.30;92.80;;;;;;4983984;28;20084;-60
2021/07/18 07:30:20;;;;;;;12.98;8.90;;;21.30;92.70;;;;;;4978242;28;20029;-60
2021/07/18 07:32:46;;;;;;;12.05;8.82;;;21.30;92.80;;;;;;4981919;28;20462;-60
2021/07/18 07:35:15;;;;;;;12.38;8.80;;;21.30;92.70;;;;;;4984305;28;20053;-60
2021/07/18 07:37:41;;;;;;;12.43;9.02;;;21.30;92.70;;;;;;4981880;28;20208;-60
2021/07/18 07:40:08;;;;;;;11.90;8.48;;;21.30;92.90;;;;;;4983076;28;20482;-60
2021/07/18 07:42:33;;;;;;;11.23;8.48;;;21.30;92.60;;;;;;4982829;28;20450;-60
2021/07/18 07:44:59;;;;;;;16.33;7.78;;;21.30;92.50;;;;;;4982761;28;20034;-60
2021/07/18 07:47:24;;;;;;;13.63;8.35;;;21.30;92.50;;;;;;4983616;28;20042;-60
2021/07/18 07:49:50;;;;;;;17.73;8.07;;;21.30;92.40;;;;;;4983559;28;20070;-60
2021/07/18 07:52:15;;;;;;;13.82;6.95;;;21.40;92.40;;;;;;4982893;28;20069;-60
2021/07/18 07:54:41;;;;;;;11.50;7.13;;;21.40;92.30;;;;;;4983859;28;20030;-60
2021/07/18 07:57:07;;;;;;;13.43;7.38;;;21.40;92.30;;;;;;4999600;28;20044;-63
2021/07/18 07:59:32;;;;;;;12.95;7.22;;;21.40;92.30;;;;;;4982689;28;20042;-60
2021/07/18 08:01:58;;;;;;;12.45;7.28;;;21.40;92.30;;;;;;4984007;28;20080;-61
2021/07/18 08:04:27;;;;;;;11.77;7.38;;;21.40;92.20;;;;;;4984665;28;20435;-60
2021/07/18 08:06:53;;;;;;;18.77;7.82;;;21.40;92.20;;;;;;4980943;28;20030;-60
2021/07/18 08:09:18;;;;;;;27.23;8.30;;;21.40;92.00;;;;;;4983092;28;20065;-60
2021/07/18 08:11:44;;;;;;;13.35;7.20;;;21.50;92.20;;;;;;4980847;28;20420;-61
2021/07/18 08:14:10;;;;;;;14.90;7.20;;;21.50;92.00;;;;;;4982945;28;20047;-59
2021/07/18 08:16:36;;;;;;;15.73;7.40;;;21.50;92.00;;;;;;4983417;28;20030;-60
2021/07/18 08:19:01;;;;;;;37.55;8.13;;;21.50;92.00;;;;;;4981263;28;20407;-61
2021/07/18 08:21:27;;;;;;;31.00;7.75;;;21.50;91.90;;;;;;4982039;28;20503;-60
2021/07/18 08:23:52;;;;;;;18.15;7.18;;;21.60;91.90;;;;;;4983590;28;20037;-60
2021/07/18 08:26:18;;;;;;;29.95;7.15;;;21.60;91.80;;;;;;4982519;28;20039;-61
2021/07/18 08:28:43;;;;;;;16.83;7.18;;;21.60;91.80;;;;;;4983369;28;20117;-60
2021/07/18 08:31:09;;;;;;;14.02;7.05;;;21.70;91.80;;;;;;4979621;28;20115;-60
2021/07/18 08:33:35;;;;;;;23.02;7.35;;;21.60;91.70;;;;;;4979034;28;20431;-60
2021/07/18 08:36:00;;;;;;;21.80;6.97;;;21.70;91.70;;;;;;4978931;28;20085;-61
2021/07/18 08:38:26;;;;;;;13.57;7.28;;;21.70;91.70;;;;;;4962188;28;20438;-60
2021/07/18 08:40:51;;;;;;;22.25;7.22;;;21.70;91.80;;;;;;4980078;28;20030;-60
2021/07/18 08:43:18;;;;;;;29.63;8.18;;;21.70;91.70;;;;;;4980313;28;20081;-60
2021/07/18 08:45:43;;;;;;;18.33;7.80;;;21.70;91.70;;;;;;4981113;28;20577;-60
2021/07/18 08:48:09;;;;;;;25.80;7.40;;;21.80;91.80;;;;;;4982744;28;20149;-61
2021/07/18 08:50:35;;;;;;;19.90;7.03;;;21.80;91.50;;;;;;4980845;28;20037;-60
2021/07/18 08:53:00;;;;;;;22.27;7.65;;;21.90;91.30;;;;;;4980251;28;20046;-60
2021/07/18 08:55:26;;;;;;;48.10;8.43;;;21.90;91.10;;;;;;4982876;28;20066;-60
2021/07/18 08:57:51;;;;;;;28.48;8.43;;;21.90;91.40;;;;;;4981482;28;20061;-60
2021/07/18 09:00:17;;;;;;;32.75;7.68;;;21.90;91.00;;;;;;4981548;28;20118;-61
2021/07/18 09:02:43;;;;;;;29.98;7.95;;;21.90;91.10;;;;;;4980665;28;20022;-60
2021/07/18 09:05:09;;;;;;;26.52;7.32;;;22.00;90.90;;;;;;4982166;28;20042;-60
2021/07/18 09:07:48;;;;;;;25.33;6.93;;;22.00;90.80;;;;;;4982369;28;21195;-60
2021/07/18 09:10:14;;;;;;;46.67;8.43;;;22.00;90.80;;;;;;4981483;28;20397;-60
2021/07/18 09:12:40;;;;;;;20.55;6.72;;;22.10;90.70;;;;;;4980954;28;20018;-61
2021/07/18 09:15:07;;;;;;;60.88;9.15;;;22.10;90.70;;;;;;4981891;28;20464;-60
2021/07/18 09:17:34;;;;;;;35.50;7.47;;;22.10;90.60;;;;;;4980454;28;20034;-60
2021/07/18 09:20:13;;;;;;;31.55;7.45;;;22.20;90.50;;;;;;4981484;28;20338;-60
2021/07/18 09:22:38;;;;;;;24.42;7.07;;;22.20;90.40;;;;;;4981357;28;20026;-60
2021/07/18 09:25:04;;;;;;;40.28;8.40;;;22.20;90.50;;;;;;4981189;28;20040;-61
2021/07/18 09:27:31;;;;;;;38.80;8.55;;;22.30;90.40;;;;;;4980866;28;20545;-60
2021/07/18 09:30:05;;;;;;;26.95;6.78;;;22.40;90.50;;;;;;4980210;28;20038;-60
2021/07/18 09:32:34;;;;;;;31.15;6.72;;;22.40;90.40;;;;;;4980342;28;20042;-61
2021/07/18 09:35:05;;;;;;;42.95;7.32;;;22.50;90.20;;;;;;4980978;28;20363;-58
2021/07/18 09:37:38;;;;;;;23.15;6.53;;;22.50;90.10;;;;;;4982309;28;20085;-59
2021/07/18 09:40:08;;;;;;;48.63;7.93;;;22.60;90.10;;;;;;4980154;28;20518;-58
2021/07/18 09:42:34;;;;;;;39.80;7.38;;;22.60;90.00;;;;;;4982710;28;20663;-58
2021/07/18 09:45:00;;;;;;;33.97;8.25;;;22.60;89.50;;;;;;4983294;28;20130;-59
2021/07/18 09:47:27;;;;;;;45.92;8.23;;;22.60;89.20;;;;;;4983174;28;20054;-59
2021/07/18 09:49:53;;;;;;;57.10;9.75;;;22.60;89.30;;;;;;4983807;28;20173;-58
2021/07/18 09:52:26;;;;;;;49.83;9.05;;;22.60;88.90;;;;;;4984646;28;20628;-59
2021/07/18 09:54:56;;;;;;;43.33;8.52;;;22.60;88.60;;;;;;4996662;28;20541;-59
2021/07/18 09:57:28;;;;;;;51.65;8.48;;;22.70;88.50;;;;;;4982533;28;20110;-58
2021/07/18 09:59:54;;;;;;;39.20;7.65;;;22.70;88.30;;;;;;4981822;28;20141;-61
2021/07/18 10:02:29;;;;;;;48.30;8.18;;;22.70;88.10;;;;;;4982626;28;20415;-61
2021/07/18 10:04:55;;;;;;;62.35;9.50;;;22.70;87.90;;;;;;4964916;28;20070;-61
2021/07/18 10:07:22;;;;;;;34.55;7.57;;;22.80;88.30;;;;;;4981656;28;20042;-61
2021/07/18 10:09:49;;;;;;;43.30;7.15;;;22.80;87.60;;;;;;4978071;28;20165;-61
2021/07/18 10:12:14;;;;;;;32.42;7.20;;;22.90;87.40;;;;;;4963268;28;20049;-61
2021/07/18 10:14:41;;;;;;;31.33;8.10;;;22.90;87.10;;;;;;4982479;28;20038;-61
2021/07/18 10:17:06;;;;;;;53.38;10.50;;;22.90;87.00;;;;;;4982760;28;20050;-59
2021/07/18 10:19:32;;;;;;;60.13;8.75;;;23.00;87.00;;;;;;4983725;28;20206;-59
2021/07/18 10:21:57;;;;;;;59.92;10.20;;;23.10;87.10;;;;;;4980600;28;20583;-60
2021/07/18 10:24:23;;;;;;;71.45;10.85;;;23.10;86.60;;;;;;4982249;28;20075;-59
2021/07/18 10:26:48;;;;;;;43.80;8.55;;;23.20;86.20;;;;;;4984474;28;20125;-59
2021/07/18 10:29:14;;;;;;;79.75;9.77;;;23.20;85.40;;;;;;4982999;28;20054;-58
2021/07/18 10:31:44;;;;;;;60.30;9.55;;;23.20;85.50;;;;;;4981335;28;20034;-59
2021/07/18 10:34:09;;;;;;;54.40;8.77;;;23.30;85.30;;;;;;4966673;28;20081;-59
2021/07/18 10:36:35;;;;;;;66.75;10.20;;;23.30;85.00;;;;;;4981878;28;20034;-59
2021/07/18 10:39:04;;;;;;;59.58;8.27;;;23.40;85.00;;;;;;4981944;28;20038;-59
2021/07/18 10:41:42;;;;;;;75.05;10.43;;;23.40;84.50;;;;;;4980611;28;20035;-59
2021/07/18 10:44:18;;;;;;;53.63;7.80;;;23.50;84.50;;;;;;4983680;28;20061;-59
2021/07/18 10:46:44;;;;;;;48.85;8.38;;;23.50;84.20;;;;;;4982491;28;20173;-59
2021/07/18 10:49:18;;;;;;;131.88;13.82;;;23.50;83.70;;;;;;4983392;28;20125;-59
2021/07/18 10:51:50;;;;;;;66.68;9.40;;;23.60;83.90;;;;;;4980958;28;20107;-59
2021/07/18 10:54:19;;;;;;;90.18;11.05;;;23.60;83.40;;;;;;4981847;28;20613;-59
2021/07/18 10:56:49;;;;;;;78.20;8.70;;;23.60;83.10;;;;;;4979765;28;20112;-59
2021/07/18 10:59:37;;;;;;;49.58;8.27;;;23.60;82.00;;;;;;4976565;28;20031;-59
2021/07/18 11:02:16;;;;;;;156.23;15.95;;;23.60;81.40;;;;;;4964873;28;20165;-59
2021/07/18 11:04:43;;;;;;;63.72;7.82;;;23.70;80.80;;;;;;4982094;28;20096;-59
2021/07/18 11:07:21;;;;;;;80.63;9.73;;;23.70;80.20;;;;;;4979757;28;20033;-59
2021/07/18 11:09:51;;;;;;;61.63;8.82;;;23.80;80.80;;;;;;4982778;28;20034;-59
2021/07/18 11:12:29;;;;;;;61.22;8.98;;;23.90;80.10;;;;;;4981865;28;20489;-64
2021/07/18 11:15:18;;;;;;;28.75;6.15;;;23.90;79.00;;;;;;4981778;28;20153;-59
2021/07/18 11:18:10;;;;;;;31.42;5.50;;;24.00;77.90;;;;;;4980183;28;20034;-59
2021/07/18 11:20:35;;;;;;;45.30;6.88;;;24.00;77.20;;;;;;4989694;28;20046;-59
2021/07/18 11:23:02;;;;;;;37.88;6.40;;;24.00;77.00;;;;;;4982726;28;20034;-60
2021/07/18 11:25:42;;;;;;;63.42;10.07;;;24.10;76.60;;;;;;4980289;28;20030;-59
2021/07/18 11:28:35;;;;;;;53.22;8.73;;;24.20;77.20;;;;;;4978645;28;20046;-58
2021/07/18 11:31:10;;;;;;;72.85;8.80;;;24.30;77.00;;;;;;4981544;28;20026;-59
2021/07/18 11:33:59;;;;;;;66.13;8.23;;;24.40;76.70;;;;;;4983774;28;20045;-59
2021/07/18 11:36:31;;;;;;;67.80;8.82;;;24.40;75.90;;;;;;4981852;28;20496;-59
2021/07/18 11:38:56;;;;;;;63.53;8.02;;;24.50;75.60;;;;;;4981081;28;20090;-59
2021/07/18 11:41:29;;;;;;;37.15;8.45;;;24.60;75.50;;;;;;4980034;28;20241;-58
2021/07/18 11:44:03;;;;;;;47.05;7.03;;;24.60;75.10;;;;;;4978673;28;20038;-59
2021/07/18 11:46:39;;;;;;;48.03;7.18;;;24.70;74.90;;;;;;4980209;28;20596;-59
2021/07/18 11:49:05;;;;;;;75.82;8.60;;;24.80;74.50;;;;;;4981510;28;20034;-59
2021/07/18 11:51:33;;;;;;;65.97;8.70;;;24.80;74.50;;;;;;4979105;28;20096;-59
2021/07/18 11:53:59;;;;;;;67.75;8.98;;;24.90;74.20;;;;;;4994384;28;20050;-59
2021/07/18 11:56:27;;;;;;;60.88;8.02;;;25.00;74.60;;;;;;4980891;28;20860;-59
2021/07/18 11:59:04;;;;;;;53.30;9.20;;;25.00;74.90;;;;;;4974325;28;20078;-59
2021/07/18 12:01:31;;;;;;;89.82;10.38;;;25.00;75.00;;;;;;4977160;28;20022;-59
2021/07/18 12:03:56;;;;;;;85.28;9.73;;;25.00;75.20;;;;;;4977984;28;20029;-59
2021/07/18 12:06:27;;;;;;;68.25;9.00;;;25.00;75.40;;;;;;4977163;28;20346;-59
2021/07/18 12:08:56;;;;;;;53.97;8.43;;;25.00;75.30;;;;;;4977779;28;20066;-59
2021/07/18 12:11:26;;;;;;;88.85;9.55;;;25.00;75.00;;;;;;4976050;28;20109;-59
2021/07/18 12:13:53;;;;;;;79.78;8.93;;;25.00;75.10;;;;;;4976208;28;20124;-59
2021/07/18 12:16:19;;;;;;;35.17;7.32;;;25.00;74.50;;;;;;4979603;28;20415;-59
2021/07/18 12:18:52;;;;;;;23.90;5.75;;;25.10;74.00;;;;;;4978762;28;20038;-59
2021/07/18 12:21:22;;;;;;;66.57;8.68;;;25.10;73.50;;;;;;4974351;28;20034;-59
2021/07/18 12:24:26;;;;;;;60.92;8.05;;;25.10;73.60;;;;;;4974882;28;20117;-59
2021/07/18 12:26:58;;;;;;;62.97;9.13;;;25.20;73.20;;;;;;4977597;28;20908;-59
2021/07/18 12:29:24;;;;;;;27.58;5.53;;;25.20;72.90;;;;;;4980676;28;20034;-59